createdAt,value
2018-05-27T00:01:15.658Z,16.30
2018-05-27T00:07:20.773Z,16.00
2018-05-27T00:13:25.846Z,15.90
2018-05-27T00:19:30.353Z,15.90
2018-05-27T00:25:34.698Z,15.90
2018-05-27T00:31:39.041Z,15.80
2018-05-27T00:37:43.396Z,15.80
2018-05-27T00:43:47.749Z,15.90
2018-05-27T00:49:52.145Z,15.80
2018-05-27T00:55:57.226Z,15.40
2018-05-27T01:02:01.616Z,15.30
2018-05-27T01:08:05.965Z,15.40
2018-05-27T01:14:10.463Z,15.40
2018-05-27T01:20:14.800Z,15.50
2018-05-27T01:26:19.180Z,15.40
2018-05-27T01:32:24.279Z,15.40
2018-05-27T01:38:28.595Z,15.40
2018-05-27T01:44:33.763Z,15.30
2018-05-27T01:50:38.182Z,15.30
2018-05-27T01:56:42.520Z,15.20
2018-05-27T02:02:46.860Z,15.10
2018-05-27T02:08:51.320Z,15.00
2018-05-27T02:14:55.721Z,14.80
2018-05-27T02:21:00.136Z,14.80
2018-05-27T02:27:04.509Z,14.70
2018-05-27T02:33:08.859Z,14.70
2018-05-27T02:39:13.204Z,14.60
2018-05-27T02:45:18.547Z,14.10
2018-05-27T02:51:23.531Z,14.10
2018-05-27T02:57:27.868Z,14.00
2018-05-27T03:03:32.954Z,14.10
2018-05-27T03:09:37.474Z,14.10
2018-05-27T03:15:41.804Z,14.00
2018-05-27T03:21:47.085Z,14.00
2018-05-27T03:27:52.308Z,13.90
2018-05-27T03:33:56.696Z,13.90
2018-05-27T03:40:01.049Z,13.90
2018-05-27T03:46:06.151Z,13.90
2018-05-27T03:52:11.256Z,14.00
2018-05-27T03:58:15.596Z,14.00
2018-05-27T04:04:37.541Z,14.00
2018-05-27T04:10:41.977Z,14.00
2018-05-27T04:16:47.104Z,13.90
2018-05-27T04:22:51.489Z,13.90
2018-05-27T04:28:56.735Z,14.10
2018-05-27T04:35:01.853Z,14.50
2018-05-27T04:41:06.194Z,14.50
2018-05-27T04:47:10.543Z,14.70
2018-05-27T04:53:14.881Z,14.80
2018-05-27T04:59:19.830Z,14.90
2018-05-27T05:05:24.513Z,15.00
2018-05-27T05:11:29.637Z,15.40
2018-05-27T05:17:34.044Z,15.40
2018-05-27T05:23:38.364Z,15.60
2018-05-27T05:29:42.757Z,15.90
2018-05-27T05:35:47.099Z,16.20
2018-05-27T05:41:51.625Z,16.50
2018-05-27T05:47:56.109Z,16.60
2018-05-27T05:54:00.451Z,17.00
2018-05-27T06:00:04.861Z,17.30
2018-05-27T06:06:09.217Z,17.60
2018-05-27T06:12:13.565Z,17.90
2018-05-27T06:18:18.669Z,18.40
2018-05-27T06:24:23.013Z,18.40
2018-05-27T06:30:27.372Z,18.80
2018-05-27T06:36:31.731Z,19.00
2018-05-27T06:42:36.073Z,19.20
2018-05-27T06:48:40.453Z,19.40
2018-05-27T06:54:44.824Z,19.80
2018-05-27T07:00:49.891Z,19.90
2018-05-27T07:06:54.373Z,20.10
2018-05-27T07:12:58.729Z,20.60
2018-05-27T07:19:03.116Z,21.30
2018-05-27T07:25:07.455Z,21.80
2018-05-27T07:31:11.812Z,22.00
2018-05-27T07:37:16.174Z,22.30
2018-05-27T07:43:20.667Z,22.60
2018-05-27T07:49:25.084Z,23.10
2018-05-27T07:55:29.432Z,23.40
2018-05-27T08:01:33.784Z,23.60
2018-05-27T08:07:38.143Z,24.10
2018-05-27T08:13:42.528Z,24.60
2018-05-27T08:19:46.958Z,24.80
2018-05-27T08:25:51.764Z,25.20
2018-05-27T08:31:56.995Z,25.20
2018-05-27T08:38:01.339Z,25.20
2018-05-27T08:44:05.653Z,25.50
2018-05-27T08:50:10.038Z,25.80
2018-05-27T08:56:14.388Z,26.30
2018-05-27T09:02:19.812Z,26.60
2018-05-27T09:08:25.067Z,26.90
2018-05-27T09:14:29.422Z,27.40
2018-05-27T09:20:34.616Z,27.50
2018-05-27T09:26:39.797Z,27.80
2018-05-27T09:32:45.003Z,28.20
2018-05-27T09:38:50.294Z,27.90
2018-05-27T09:44:54.792Z,27.90
2018-05-27T09:50:59.226Z,28.20
2018-05-27T09:57:03.646Z,28.50
2018-05-27T10:03:08.758Z,29.00
2018-05-27T10:09:13.120Z,29.00
2018-05-27T10:15:17.468Z,28.60
2018-05-27T10:21:23.441Z,28.00
2018-05-27T10:27:27.791Z,28.00
2018-05-27T10:33:32.174Z,28.40
2018-05-27T10:39:36.513Z,28.90
2018-05-27T10:45:41.624Z,30.50
2018-05-27T10:51:45.932Z,30.50
2018-05-27T10:57:51.095Z,30.90
2018-05-27T11:03:55.445Z,30.90
2018-05-27T11:10:00.878Z,31.00
2018-05-27T11:16:05.184Z,31.00
2018-05-27T11:22:10.330Z,31.10
2018-05-27T11:28:14.713Z,31.00
2018-05-27T11:34:19.100Z,31.00
2018-05-27T11:40:23.844Z,31.80
2018-05-27T11:46:28.235Z,31.60
2018-05-27T11:52:32.601Z,32.00
2018-05-27T11:58:36.907Z,32.00
2018-05-27T12:04:41.286Z,32.30
2018-05-27T12:10:45.737Z,33.00
2018-05-27T12:16:50.383Z,32.90
2018-05-27T12:22:54.916Z,33.30
2018-05-27T12:28:59.281Z,34.40
2018-05-27T12:35:03.648Z,34.80
2018-05-27T12:41:07.992Z,35.10
2018-05-27T12:47:13.102Z,34.90
2018-05-27T12:53:17.439Z,34.80
2018-05-27T12:59:21.870Z,35.50
2018-05-27T13:05:26.362Z,36.30
2018-05-27T13:11:30.738Z,36.30
2018-05-27T13:17:35.088Z,36.10
2018-05-27T13:23:39.429Z,34.60
2018-05-27T13:29:44.540Z,32.70
2018-05-27T13:35:50.277Z,31.90
2018-05-27T13:41:54.845Z,31.90
2018-05-27T13:47:59.221Z,33.00
2018-05-27T13:54:03.553Z,33.20
2018-05-27T14:00:07.902Z,32.80
2018-05-27T14:06:12.262Z,33.40
2018-05-27T14:12:16.605Z,33.20
2018-05-27T14:18:21.133Z,33.60
2018-05-27T14:24:25.669Z,33.20
2018-05-27T14:30:30.020Z,34.00
2018-05-27T14:36:34.384Z,33.80
2018-05-27T14:42:38.726Z,34.50
2018-05-27T14:48:43.065Z,34.30
2018-05-27T14:54:47.452Z,34.50
2018-05-27T15:00:52.584Z,33.80
2018-05-27T15:06:56.928Z,33.10
2018-05-27T15:13:01.239Z,32.90
2018-05-27T15:19:05.660Z,32.80
2018-05-27T15:25:10.008Z,32.40
2018-05-27T15:31:14.367Z,31.70
2018-05-27T15:37:19.499Z,29.50
2018-05-27T15:43:23.992Z,29.40
2018-05-27T15:49:28.397Z,28.50
2018-05-27T15:55:32.748Z,27.70
2018-05-27T16:01:37.060Z,26.80
2018-05-27T16:07:41.452Z,25.70
2018-05-27T16:13:46.525Z,22.80
2018-05-27T16:19:51.520Z,22.70
2018-05-27T16:25:56.677Z,21.20
2018-05-27T16:32:01.075Z,21.20
2018-05-27T16:38:05.425Z,20.90
2018-05-27T16:44:09.786Z,20.60
2018-05-27T16:50:14.148Z,20.70
2018-05-27T16:56:18.535Z,20.70
2018-05-27T17:02:23.948Z,20.70
2018-05-27T17:08:28.317Z,20.60
2018-05-27T17:14:32.819Z,20.50
2018-05-27T17:20:37.188Z,20.50
2018-05-27T17:26:41.879Z,20.30
2018-05-27T17:32:46.236Z,20.20
2018-05-27T17:38:50.865Z,20.20
2018-05-27T17:44:56.024Z,19.90
2018-05-27T17:51:00.369Z,19.90
2018-05-27T17:57:04.828Z,20.00
2018-05-27T18:03:09.178Z,20.30
2018-05-27T18:09:14.281Z,20.40
2018-05-27T18:15:18.636Z,20.40
2018-05-27T18:21:24.449Z,20.30
2018-05-27T18:27:28.800Z,20.20
2018-05-27T18:33:33.208Z,19.90
2018-05-27T18:39:38.331Z,19.80
2018-05-27T18:45:42.685Z,19.70
2018-05-27T18:51:47.036Z,19.80
2018-05-27T18:57:52.995Z,19.30
2018-05-27T19:03:57.487Z,19.30
2018-05-27T19:10:01.842Z,18.90
2018-05-27T19:16:06.199Z,18.70
2018-05-27T19:22:10.561Z,18.60
2018-05-27T19:28:15.718Z,18.20
2018-05-27T19:34:20.262Z,18.10
2018-05-27T19:40:25.941Z,17.90
2018-05-27T19:46:31.061Z,17.80
2018-05-27T19:52:35.472Z,17.70
2018-05-27T19:58:39.798Z,17.70
2018-05-27T20:04:44.188Z,17.70
2018-05-27T20:10:48.556Z,17.60
2018-05-27T20:16:53.293Z,17.60
2018-05-27T20:22:57.861Z,17.60
2018-05-27T20:29:02.252Z,17.60
2018-05-27T20:35:07.370Z,17.50
2018-05-27T20:41:11.750Z,17.40
2018-05-27T20:47:16.097Z,17.50
2018-05-27T20:53:21.987Z,17.40
2018-05-27T20:59:26.332Z,17.40
2018-05-27T21:05:31.079Z,17.50
2018-05-27T21:11:36.196Z,17.50
2018-05-27T21:17:40.591Z,17.50
2018-05-27T21:23:44.937Z,17.60
2018-05-27T21:29:50.765Z,17.50
2018-05-27T21:35:55.576Z,17.50
2018-05-27T21:41:59.973Z,17.30
2018-05-27T21:48:04.386Z,17.30
2018-05-27T21:54:08.767Z,17.40
2018-05-27T22:00:13.118Z,17.40
2018-05-27T22:06:18.239Z,17.50
2018-05-27T22:12:22.773Z,17.50
2018-05-27T22:18:27.118Z,17.50
2018-05-27T22:24:31.528Z,17.60
2018-05-27T22:30:36.641Z,17.60
2018-05-27T22:36:41.004Z,17.60
2018-05-27T22:42:45.407Z,17.60
2018-05-27T22:48:50.143Z,17.60
2018-05-27T22:54:54.984Z,17.70
2018-05-27T23:00:59.429Z,17.80
2018-05-27T23:07:03.809Z,17.90
2018-05-27T23:13:08.176Z,17.90
2018-05-27T23:19:13.289Z,17.70
2018-05-27T23:25:17.643Z,17.80
2018-05-27T23:31:22.286Z,17.80
2018-05-27T23:37:26.732Z,17.80
2018-05-27T23:43:31.114Z,17.80
2018-05-27T23:49:35.457Z,17.60
2018-05-27T23:55:39.820Z,17.50
